sensor_id;sensor_type;location;lat;lon;timestamp;P1;durP1;ratioP1;P2;durP2;ratioP2
43419;SDS011;29017;51.514;-0.178;2023-07-31T00:00:19;6.57;;;1.85;;
43419;SDS011;29017;51.514;-0.178;2023-07-31T00:02:46;10.25;;;1.83;;
43419;SDS011;29017;51.514;-0.178;2023-07-31T00:05:13;9.10;;;1.65;;
43419;SDS011;29017;51.514;-0.178;2023-07-31T00:07:40;6.40;;;1.83;;
43419;SDS011;29017;51.514;-0.178;2023-07-31T00:10:07;9.02;;;1.60;;
43419;SDS011;29017;51.514;-0.178;2023-07-31T00:12:35;9.10;;;1.80;;
43419;SDS011;29017;51.514;-0.178;2023-07-31T00:15:03;10.00;;;2.08;;
43419;SDS011;29017;51.514;-0.178;2023-07-31T00:17:31;9.10;;;1.50;;
43419;SDS011;29017;51.514;-0.178;2023-07-31T00:19:58;7.72;;;1.92;;
43419;SDS011;29017;51.514;-0.178;2023-07-31T00:22:25;9.02;;;1.70;;
43419;SDS011;29017;51.514;-0.178;2023-07-31T00:24:52;8.95;;;2.05;;
43419;SDS011;29017;51.514;-0.178;2023-07-31T00:27:19;6.68;;;1.88;;
43419;SDS011;29017;51.514;-0.178;2023-07-31T00:29:46;6.80;;;1.85;;
43419;SDS011;29017;51.514;-0.178;2023-07-31T00:32:13;8.38;;;1.77;;
43419;SDS011;29017;51.514;-0.178;2023-07-31T00:34:40;7.28;;;1.80;;
43419;SDS011;29017;51.514;-0.178;2023-07-31T00:37:07;5.55;;;1.60;;
43419;SDS011;29017;51.514;-0.178;2023-07-31T00:39:34;7.20;;;1.58;;
43419;SDS011;29017;51.514;-0.178;2023-07-31T00:42:02;6.53;;;1.73;;
43419;SDS011;29017;51.514;-0.178;2023-07-31T00:44:30;3.85;;;1.50;;
43419;SDS011;29017;51.514;-0.178;2023-07-31T00:46:57;5.45;;;1.45;;
43419;SDS011;29017;51.514;-0.178;2023-07-31T00:49:26;5.85;;;1.42;;
43419;SDS011;29017;51.514;-0.178;2023-07-31T00:51:53;6.22;;;1.10;;
43419;SDS011;29017;51.514;-0.178;2023-07-31T00:54:21;4.85;;;1.08;;
43419;SDS011;29017;51.514;-0.178;2023-07-31T00:56:48;4.57;;;0.82;;
43419;SDS011;29017;51.514;-0.178;2023-07-31T00:59:17;4.35;;;0.88;;
43419;SDS011;29017;51.514;-0.178;2023-07-31T01:01:45;3.78;;;0.80;;
43419;SDS011;29017;51.514;-0.178;2023-07-31T01:04:13;2.30;;;1.02;;
43419;SDS011;29017;51.514;-0.178;2023-07-31T01:06:44;5.50;;;0.90;;
43419;SDS011;29017;51.514;-0.178;2023-07-31T01:09:36;2.40;;;0.95;;
43419;SDS011;29017;51.514;-0.178;2023-07-31T01:12:06;3.35;;;0.93;;
43419;SDS011;29017;51.514;-0.178;2023-07-31T01:14:34;2.58;;;0.60;;
43419;SDS011;29017;51.514;-0.178;2023-07-31T01:17:01;2.67;;;0.45;;
43419;SDS011;29017;51.514;-0.178;2023-07-31T01:19:28;2.17;;;0.60;;
43419;SDS011;29017;51.514;-0.178;2023-07-31T01:27:58;1.40;;;0.40;;
43419;SDS011;29017;51.514;-0.178;2023-07-31T01:30:30;1.20;;;0.40;;
43419;SDS011;29017;51.514;-0.178;2023-07-31T01:33:03;0.82;;;0.28;;
43419;SDS011;29017;51.514;-0.178;2023-07-31T01:35:34;1.95;;;0.30;;
43419;SDS011;29017;51.514;-0.178;2023-07-31T01:38:02;3.38;;;0.40;;
43419;SDS011;29017;51.514;-0.178;2023-07-31T01:40:31;1.27;;;0.40;;
43419;SDS011;29017;51.514;-0.178;2023-07-31T01:42:58;0.98;;;0.20;;
43419;SDS011;29017;51.514;-0.178;2023-07-31T01:45:25;2.20;;;0.40;;
43419;SDS011;29017;51.514;-0.178;2023-07-31T01:47:52;0.80;;;0.22;;
43419;SDS011;29017;51.514;-0.178;2023-07-31T01:50:19;2.45;;;0.30;;
43419;SDS011;29017;51.514;-0.178;2023-07-31T01:52:46;3.03;;;0.40;;
43419;SDS011;29017;51.514;-0.178;2023-07-31T01:55:13;2.65;;;0.30;;
43419;SDS011;29017;51.514;-0.178;2023-07-31T01:57:40;1.70;;;0.20;;
43419;SDS011;29017;51.514;-0.178;2023-07-31T02:00:08;1.15;;;0.20;;
43419;SDS011;29017;51.514;-0.178;2023-07-31T02:02:35;1.13;;;0.20;;
43419;SDS011;29017;51.514;-0.178;2023-07-31T02:05:02;2.10;;;0.30;;
43419;SDS011;29017;51.514;-0.178;2023-07-31T02:07:30;1.83;;;0.30;;
43419;SDS011;29017;51.514;-0.178;2023-07-31T02:09:57;0.80;;;0.20;;
43419;SDS011;29017;51.514;-0.178;2023-07-31T02:12:24;1.23;;;0.28;;
43419;SDS011;29017;51.514;-0.178;2023-07-31T02:14:51;2.45;;;0.30;;
43419;SDS011;29017;51.514;-0.178;2023-07-31T02:17:18;0.77;;;0.20;;
43419;SDS011;29017;51.514;-0.178;2023-07-31T02:19:44;0.63;;;0.20;;
43419;SDS011;29017;51.514;-0.178;2023-07-31T02:22:11;2.90;;;0.88;;
43419;SDS011;29017;51.514;-0.178;2023-07-31T02:24:39;0.80;;;0.30;;
43419;SDS011;29017;51.514;-0.178;2023-07-31T02:27:06;2.85;;;0.30;;
43419;SDS011;29017;51.514;-0.178;2023-07-31T02:29:33;0.98;;;0.20;;
43419;SDS011;29017;51.514;-0.178;2023-07-31T02:32:00;0.75;;;0.30;;
43419;SDS011;29017;51.514;-0.178;2023-07-31T02:34:27;1.38;;;0.30;;
43419;SDS011;29017;51.514;-0.178;2023-07-31T02:36:54;1.45;;;0.40;;
43419;SDS011;29017;51.514;-0.178;2023-07-31T02:39:26;1.48;;;0.25;;
43419;SDS011;29017;51.514;-0.178;2023-07-31T02:41:53;1.52;;;0.30;;
43419;SDS011;29017;51.514;-0.178;2023-07-31T02:44:20;0.90;;;0.20;;
43419;SDS011;29017;51.514;-0.178;2023-07-31T02:46:47;1.40;;;0.30;;
43419;SDS011;29017;51.514;-0.178;2023-07-31T02:49:15;1.58;;;0.20;;
43419;SDS011;29017;51.514;-0.178;2023-07-31T02:51:42;2.55;;;0.40;;
43419;SDS011;29017;51.514;-0.178;2023-07-31T02:54:09;3.30;;;0.30;;
43419;SDS011;29017;51.514;-0.178;2023-07-31T02:56:36;1.27;;;0.30;;
43419;SDS011;29017;51.514;-0.178;2023-07-31T02:59:04;1.17;;;0.30;;
43419;SDS011;29017;51.514;-0.178;2023-07-31T03:01:31;1.42;;;0.30;;
43419;SDS011;29017;51.514;-0.178;2023-07-31T03:03:58;1.35;;;0.30;;
43419;SDS011;29017;51.514;-0.178;2023-07-31T03:06:26;1.88;;;0.43;;
43419;SDS011;29017;51.514;-0.178;2023-07-31T03:08:53;2.05;;;0.30;;
43419;SDS011;29017;51.514;-0.178;2023-07-31T03:11:20;2.35;;;0.30;;
43419;SDS011;29017;51.514;-0.178;2023-07-31T03:13:47;1.75;;;0.30;;
43419;SDS011;29017;51.514;-0.178;2023-07-31T03:16:14;1.58;;;0.30;;
43419;SDS011;29017;51.514;-0.178;2023-07-31T03:18:42;0.90;;;0.38;;
43419;SDS011;29017;51.514;-0.178;2023-07-31T03:21:09;2.95;;;0.40;;
43419;SDS011;29017;51.514;-0.178;2023-07-31T03:23:36;1.48;;;0.40;;
43419;SDS011;29017;51.514;-0.178;2023-07-31T03:26:05;1.70;;;0.30;;
43419;SDS011;29017;51.514;-0.178;2023-07-31T03:28:33;1.17;;;0.40;;
43419;SDS011;29017;51.514;-0.178;2023-07-31T03:31:00;3.03;;;0.50;;
43419;SDS011;29017;51.514;-0.178;2023-07-31T03:33:27;2.60;;;0.30;;
43419;SDS011;29017;51.514;-0.178;2023-07-31T03:35:54;1.77;;;0.50;;
43419;SDS011;29017;51.514;-0.178;2023-07-31T03:38:21;2.78;;;0.30;;
43419;SDS011;29017;51.514;-0.178;2023-07-31T03:40:49;1.80;;;0.30;;
43419;SDS011;29017;51.514;-0.178;2023-07-31T03:43:16;1.23;;;0.20;;
43419;SDS011;29017;51.514;-0.178;2023-07-31T03:45:43;1.25;;;0.20;;
43419;SDS011;29017;51.514;-0.178;2023-07-31T03:48:10;1.77;;;0.32;;
43419;SDS011;29017;51.514;-0.178;2023-07-31T03:50:37;1.73;;;0.35;;
43419;SDS011;29017;51.514;-0.178;2023-07-31T03:53:04;2.08;;;0.25;;
43419;SDS011;29017;51.514;-0.178;2023-07-31T03:55:31;4.88;;;0.47;;
43419;SDS011;29017;51.514;-0.178;2023-07-31T03:57:58;1.10;;;0.20;;
43419;SDS011;29017;51.514;-0.178;2023-07-31T04:00:26;0.88;;;0.20;;
43419;SDS011;29017;51.514;-0.178;2023-07-31T04:02:54;1.52;;;0.20;;
43419;SDS011;29017;51.514;-0.178;2023-07-31T04:05:21;4.13;;;0.22;;
43419;SDS011;29017;51.514;-0.178;2023-07-31T04:07:48;0.32;;;0.10;;
43419;SDS011;29017;51.514;-0.178;2023-07-31T04:10:15;1.27;;;0.25;;
43419;SDS011;29017;51.514;-0.178;2023-07-31T04:12:42;1.48;;;0.30;;
43419;SDS011;29017;51.514;-0.178;2023-07-31T04:15:09;1.45;;;0.73;;
43419;SDS011;29017;51.514;-0.178;2023-07-31T04:17:36;1.50;;;0.20;;
43419;SDS011;29017;51.514;-0.178;2023-07-31T04:20:03;1.73;;;0.50;;
43419;SDS011;29017;51.514;-0.178;2023-07-31T04:22:31;0.93;;;0.20;;
43419;SDS011;29017;51.514;-0.178;2023-07-31T04:24:58;0.98;;;0.30;;
43419;SDS011;29017;51.514;-0.178;2023-07-31T04:27:25;2.20;;;0.20;;
43419;SDS011;29017;51.514;-0.178;2023-07-31T04:29:52;1.77;;;0.20;;
43419;SDS011;29017;51.514;-0.178;2023-07-31T04:32:19;2.45;;;0.20;;
43419;SDS011;29017;51.514;-0.178;2023-07-31T04:34:47;1.80;;;0.20;;
43419;SDS011;29017;51.514;-0.178;2023-07-31T04:37:14;2.08;;;0.30;;
43419;SDS011;29017;51.514;-0.178;2023-07-31T04:39:41;2.53;;;0.20;;
43419;SDS011;29017;51.514;-0.178;2023-07-31T04:42:08;1.75;;;0.20;;
43419;SDS011;29017;51.514;-0.178;2023-07-31T04:44:35;2.75;;;0.20;;
43419;SDS011;29017;51.514;-0.178;2023-07-31T04:47:02;1.45;;;0.25;;
43419;SDS011;29017;51.514;-0.178;2023-07-31T04:49:30;0.82;;;0.10;;
43419;SDS011;29017;51.514;-0.178;2023-07-31T04:51:57;0.85;;;0.30;;
43419;SDS011;29017;51.514;-0.178;2023-07-31T04:54:24;1.73;;;0.30;;
43419;SDS011;29017;51.514;-0.178;2023-07-31T04:56:53;1.45;;;0.20;;
43419;SDS011;29017;51.514;-0.178;2023-07-31T04:59:20;1.55;;;0.10;;
43419;SDS011;29017;51.514;-0.178;2023-07-31T05:01:47;1.73;;;0.30;;
43419;SDS011;29017;51.514;-0.178;2023-07-31T05:04:14;2.47;;;0.20;;
43419;SDS011;29017;51.514;-0.178;2023-07-31T05:06:42;2.05;;;0.70;;
43419;SDS011;29017;51.514;-0.178;2023-07-31T05:09:09;1.48;;;0.20;;
43419;SDS011;29017;51.514;-0.178;2023-07-31T05:11:36;2.30;;;0.20;;
43419;SDS011;29017;51.514;-0.178;2023-07-31T05:14:03;3.42;;;0.30;;
43419;SDS011;29017;51.514;-0.178;2023-07-31T05:16:30;2.40;;;0.20;;
43419;SDS011;29017;51.514;-0.178;2023-07-31T05:18:58;1.83;;;0.20;;
43419;SDS011;29017;51.514;-0.178;2023-07-31T05:21:25;1.58;;;0.43;;
43419;SDS011;29017;51.514;-0.178;2023-07-31T05:23:52;1.65;;;0.20;;
43419;SDS011;29017;51.514;-0.178;2023-07-31T05:26:19;1.42;;;0.20;;
43419;SDS011;29017;51.514;-0.178;2023-07-31T05:28:46;1.88;;;0.30;;
43419;SDS011;29017;51.514;-0.178;2023-07-31T05:31:13;1.60;;;0.28;;
43419;SDS011;29017;51.514;-0.178;2023-07-31T05:33:40;1.02;;;0.20;;
43419;SDS011;29017;51.514;-0.178;2023-07-31T05:36:07;3.33;;;1.20;;
43419;SDS011;29017;51.514;-0.178;2023-07-31T05:38:34;1.70;;;0.20;;
43419;SDS011;29017;51.514;-0.178;2023-07-31T05:41:01;0.77;;;0.10;;
43419;SDS011;29017;51.514;-0.178;2023-07-31T05:43:28;0.98;;;0.20;;
43419;SDS011;29017;51.514;-0.178;2023-07-31T05:45:57;0.75;;;0.20;;
43419;SDS011;29017;51.514;-0.178;2023-07-31T05:48:24;1.23;;;0.20;;
43419;SDS011;29017;51.514;-0.178;2023-07-31T05:50:51;1.80;;;0.30;;
43419;SDS011;29017;51.514;-0.178;2023-07-31T05:53:18;3.47;;;0.20;;
43419;SDS011;29017;51.514;-0.178;2023-07-31T05:55:45;2.83;;;0.22;;
43419;SDS011;29017;51.514;-0.178;2023-07-31T05:58:12;4.07;;;0.40;;
43419;SDS011;29017;51.514;-0.178;2023-07-31T06:00:39;2.83;;;0.17;;
43419;SDS011;29017;51.514;-0.178;2023-07-31T06:03:07;2.28;;;0.30;;
43419;SDS011;29017;51.514;-0.178;2023-07-31T06:05:34;3.05;;;0.35;;
43419;SDS011;29017;51.514;-0.178;2023-07-31T06:08:01;1.75;;;0.30;;
43419;SDS011;29017;51.514;-0.178;2023-07-31T06:10:28;1.80;;;0.20;;
43419;SDS011;29017;51.514;-0.178;2023-07-31T06:12:55;2.03;;;0.30;;
43419;SDS011;29017;51.514;-0.178;2023-07-31T06:15:23;2.08;;;0.30;;
43419;SDS011;29017;51.514;-0.178;2023-07-31T06:17:50;1.58;;;0.20;;
43419;SDS011;29017;51.514;-0.178;2023-07-31T06:20:18;3.88;;;0.50;;
43419;SDS011;29017;51.514;-0.178;2023-07-31T06:22:45;2.90;;;0.30;;
43419;SDS011;29017;51.514;-0.178;2023-07-31T06:25:12;3.35;;;0.30;;
43419;SDS011;29017;51.514;-0.178;2023-07-31T06:27:41;3.92;;;0.40;;
43419;SDS011;29017;51.514;-0.178;2023-07-31T06:30:08;4.28;;;0.30;;
43419;SDS011;29017;51.514;-0.178;2023-07-31T06:32:35;2.53;;;0.30;;
43419;SDS011;29017;51.514;-0.178;2023-07-31T06:35:02;4.13;;;0.30;;
43419;SDS011;29017;51.514;-0.178;2023-07-31T06:37:30;4.30;;;0.30;;
43419;SDS011;29017;51.514;-0.178;2023-07-31T06:39:57;3.53;;;0.70;;
43419;SDS011;29017;51.514;-0.178;2023-07-31T06:42:24;3.28;;;0.63;;
43419;SDS011;29017;51.514;-0.178;2023-07-31T06:44:51;4.13;;;0.28;;
43419;SDS011;29017;51.514;-0.178;2023-07-31T06:47:18;3.03;;;0.30;;
43419;SDS011;29017;51.514;-0.178;2023-07-31T06:49:45;4.45;;;0.40;;
43419;SDS011;29017;51.514;-0.178;2023-07-31T06:52:12;3.05;;;0.40;;
43419;SDS011;29017;51.514;-0.178;2023-07-31T06:54:39;2.28;;;0.32;;
43419;SDS011;29017;51.514;-0.178;2023-07-31T06:57:06;4.65;;;0.40;;
43419;SDS011;29017;51.514;-0.178;2023-07-31T06:59:33;1.88;;;0.30;;
43419;SDS011;29017;51.514;-0.178;2023-07-31T07:02:01;2.03;;;0.25;;
43419;SDS011;29017;51.514;-0.178;2023-07-31T07:04:32;4.60;;;0.50;;
43419;SDS011;29017;51.514;-0.178;2023-07-31T07:06:59;4.30;;;0.40;;
43419;SDS011;29017;51.514;-0.178;2023-07-31T07:09:27;2.10;;;0.40;;
43419;SDS011;29017;51.514;-0.178;2023-07-31T07:11:58;2.75;;;0.40;;
43419;SDS011;29017;51.514;-0.178;2023-07-31T07:14:25;4.60;;;0.45;;
43419;SDS011;29017;51.514;-0.178;2023-07-31T07:16:52;4.50;;;0.40;;
43419;SDS011;29017;51.514;-0.178;2023-07-31T07:19:19;5.18;;;0.35;;
43419;SDS011;29017;51.514;-0.178;2023-07-31T07:21:46;4.30;;;0.40;;
43419;SDS011;29017;51.514;-0.178;2023-07-31T07:24:13;3.58;;;0.50;;
43419;SDS011;29017;51.514;-0.178;2023-07-31T07:26:40;2.33;;;0.43;;
43419;SDS011;29017;51.514;-0.178;2023-07-31T07:29:08;2.08;;;0.30;;
43419;SDS011;29017;51.514;-0.178;2023-07-31T07:31:37;2.70;;;0.40;;
43419;SDS011;29017;51.514;-0.178;2023-07-31T07:34:04;4.00;;;0.40;;
43419;SDS011;29017;51.514;-0.178;2023-07-31T07:36:31;2.67;;;0.40;;
43419;SDS011;29017;51.514;-0.178;2023-07-31T07:38:59;2.55;;;0.45;;
43419;SDS011;29017;51.514;-0.178;2023-07-31T07:41:26;4.65;;;0.30;;
43419;SDS011;29017;51.514;-0.178;2023-07-31T07:43:53;5.22;;;0.40;;
43419;SDS011;29017;51.514;-0.178;2023-07-31T07:46:20;1.42;;;0.30;;
43419;SDS011;29017;51.514;-0.178;2023-07-31T07:48:47;3.28;;;0.43;;
43419;SDS011;29017;51.514;-0.178;2023-07-31T07:51:14;2.85;;;0.30;;
43419;SDS011;29017;51.514;-0.178;2023-07-31T07:53:41;3.63;;;0.30;;
43419;SDS011;29017;51.514;-0.178;2023-07-31T07:56:08;2.05;;;0.40;;
43419;SDS011;29017;51.514;-0.178;2023-07-31T07:58:35;3.40;;;0.40;;
43419;SDS011;29017;51.514;-0.178;2023-07-31T08:01:02;3.55;;;0.70;;
43419;SDS011;29017;51.514;-0.178;2023-07-31T08:03:29;2.35;;;0.57;;
43419;SDS011;29017;51.514;-0.178;2023-07-31T08:05:59;1.00;;;0.30;;
43419;SDS011;29017;51.514;-0.178;2023-07-31T08:08:27;1.17;;;0.10;;
43419;SDS011;29017;51.514;-0.178;2023-07-31T08:10:55;1.65;;;0.20;;
43419;SDS011;29017;51.514;-0.178;2023-07-31T08:13:22;0.47;;;0.10;;
43419;SDS011;29017;51.514;-0.178;2023-07-31T08:15:49;0.80;;;0.20;;
43419;SDS011;29017;51.514;-0.178;2023-07-31T08:18:16;0.40;;;0.13;;
43419;SDS011;29017;51.514;-0.178;2023-07-31T08:20:44;1.95;;;0.10;;
43419;SDS011;29017;51.514;-0.178;2023-07-31T08:23:11;1.70;;;0.20;;
43419;SDS011;29017;51.514;-0.178;2023-07-31T08:25:38;1.08;;;0.20;;
43419;SDS011;29017;51.514;-0.178;2023-07-31T08:28:05;1.60;;;0.30;;
43419;SDS011;29017;51.514;-0.178;2023-07-31T08:30:33;3.00;;;0.30;;
43419;SDS011;29017;51.514;-0.178;2023-07-31T08:33:00;1.13;;;0.20;;
43419;SDS011;29017;51.514;-0.178;2023-07-31T08:35:27;1.52;;;0.20;;
43419;SDS011;29017;51.514;-0.178;2023-07-31T08:37:55;1.40;;;0.30;;
43419;SDS011;29017;51.514;-0.178;2023-07-31T08:40:22;2.05;;;0.30;;
43419;SDS011;29017;51.514;-0.178;2023-07-31T08:42:50;1.17;;;0.30;;
43419;SDS011;29017;51.514;-0.178;2023-07-31T08:45:21;2.13;;;0.40;;
43419;SDS011;29017;51.514;-0.178;2023-07-31T08:47:48;4.68;;;0.50;;
43419;SDS011;29017;51.514;-0.178;2023-07-31T08:50:20;1.42;;;0.30;;
43419;SDS011;29017;51.514;-0.178;2023-07-31T08:52:48;2.63;;;0.30;;
43419;SDS011;29017;51.514;-0.178;2023-07-31T08:55:17;1.63;;;0.40;;
43419;SDS011;29017;51.514;-0.178;2023-07-31T08:57:44;2.25;;;0.30;;
43419;SDS011;29017;51.514;-0.178;2023-07-31T09:00:13;2.25;;;0.40;;
43419;SDS011;29017;51.514;-0.178;2023-07-31T09:02:42;1.52;;;0.40;;
43419;SDS011;29017;51.514;-0.178;2023-07-31T09:05:12;2.25;;;0.50;;
43419;SDS011;29017;51.514;-0.178;2023-07-31T09:07:40;3.63;;;0.50;;
43419;SDS011;29017;51.514;-0.178;2023-07-31T09:10:07;2.45;;;0.60;;
43419;SDS011;29017;51.514;-0.178;2023-07-31T09:12:34;3.75;;;0.43;;
43419;SDS011;29017;51.514;-0.178;2023-07-31T09:15:03;2.03;;;0.52;;
43419;SDS011;29017;51.514;-0.178;2023-07-31T09:17:35;4.30;;;0.85;;
43419;SDS011;29017;51.514;-0.178;2023-07-31T09:20:17;3.63;;;0.63;;
43419;SDS011;29017;51.514;-0.178;2023-07-31T09:22:48;6.80;;;0.60;;
43419;SDS011;29017;51.514;-0.178;2023-07-31T09:25:23;4.80;;;0.52;;
43419;SDS011;29017;51.514;-0.178;2023-07-31T09:27:56;3.88;;;0.50;;
43419;SDS011;29017;51.514;-0.178;2023-07-31T09:30:28;1.38;;;0.50;;
43419;SDS011;29017;51.514;-0.178;2023-07-31T09:33:02;3.47;;;0.50;;
43419;SDS011;29017;51.514;-0.178;2023-07-31T09:35:33;4.07;;;0.60;;
43419;SDS011;29017;51.514;-0.178;2023-07-31T09:38:05;2.30;;;0.55;;
43419;SDS011;29017;51.514;-0.178;2023-07-31T09:40:35;3.10;;;0.40;;
43419;SDS011;29017;51.514;-0.178;2023-07-31T09:43:07;2.38;;;0.68;;
43419;SDS011;29017;51.514;-0.178;2023-07-31T09:45:37;2.00;;;0.70;;
43419;SDS011;29017;51.514;-0.178;2023-07-31T09:48:09;4.47;;;0.70;;
43419;SDS011;29017;51.514;-0.178;2023-07-31T09:50:46;4.43;;;0.63;;
43419;SDS011;29017;51.514;-0.178;2023-07-31T09:53:18;4.72;;;0.65;;
43419;SDS011;29017;51.514;-0.178;2023-07-31T09:55:45;5.07;;;0.80;;
43419;SDS011;29017;51.514;-0.178;2023-07-31T09:58:12;3.05;;;0.60;;
43419;SDS011;29017;51.514;-0.178;2023-07-31T10:00:39;2.97;;;0.50;;
43419;SDS011;29017;51.514;-0.178;2023-07-31T10:03:07;1.52;;;0.30;;
43419;SDS011;29017;51.514;-0.178;2023-07-31T10:05:57;2.47;;;0.40;;
43419;SDS011;29017;51.514;-0.178;2023-07-31T10:08:27;1.65;;;0.30;;
43419;SDS011;29017;51.514;-0.178;2023-07-31T10:10:58;1.30;;;0.30;;
43419;SDS011;29017;51.514;-0.178;2023-07-31T10:13:27;3.05;;;0.77;;
43419;SDS011;29017;51.514;-0.178;2023-07-31T10:15:57;1.40;;;0.30;;
43419;SDS011;29017;51.514;-0.178;2023-07-31T10:18:26;1.85;;;0.52;;
43419;SDS011;29017;51.514;-0.178;2023-07-31T10:20:55;1.05;;;0.28;;
43419;SDS011;29017;51.514;-0.178;2023-07-31T10:23:23;1.90;;;0.30;;
43419;SDS011;29017;51.514;-0.178;2023-07-31T10:25:53;1.05;;;0.30;;
43419;SDS011;29017;51.514;-0.178;2023-07-31T10:28:21;1.83;;;0.50;;
43419;SDS011;29017;51.514;-0.178;2023-07-31T10:30:48;3.10;;;0.28;;
43419;SDS011;29017;51.514;-0.178;2023-07-31T10:33:17;2.13;;;0.30;;
43419;SDS011;29017;51.514;-0.178;2023-07-31T10:35:47;0.88;;;0.20;;
43419;SDS011;29017;51.514;-0.178;2023-07-31T10:38:15;0.65;;;0.20;;
43419;SDS011;29017;51.514;-0.178;2023-07-31T10:40:42;1.23;;;0.20;;
43419;SDS011;29017;51.514;-0.178;2023-07-31T10:43:23;1.67;;;0.38;;
43419;SDS011;29017;51.514;-0.178;2023-07-31T10:45:52;0.47;;;0.20;;
43419;SDS011;29017;51.514;-0.178;2023-07-31T10:48:20;0.82;;;0.25;;
43419;SDS011;29017;51.514;-0.178;2023-07-31T10:50:56;0.85;;;0.20;;
43419;SDS011;29017;51.514;-0.178;2023-07-31T10:53:29;0.50;;;0.20;;
43419;SDS011;29017;51.514;-0.178;2023-07-31T10:56:01;1.40;;;0.30;;
43419;SDS011;29017;51.514;-0.178;2023-07-31T11:00:59;1.38;;;0.30;;
43419;SDS011;29017;51.514;-0.178;2023-07-31T11:03:50;2.92;;;0.38;;
43419;SDS011;29017;51.514;-0.178;2023-07-31T11:06:19;3.03;;;0.47;;
43419;SDS011;29017;51.514;-0.178;2023-07-31T11:08:50;2.67;;;0.50;;
43419;SDS011;29017;51.514;-0.178;2023-07-31T11:11:40;0.77;;;0.30;;
43419;SDS011;29017;51.514;-0.178;2023-07-31T11:14:08;2.38;;;0.63;;
43419;SDS011;29017;51.514;-0.178;2023-07-31T11:16:37;2.22;;;0.40;;
43419;SDS011;29017;51.514;-0.178;2023-07-31T11:19:04;4.82;;;0.40;;
43419;SDS011;29017;51.514;-0.178;2023-07-31T11:21:35;3.30;;;0.52;;
43419;SDS011;29017;51.514;-0.178;2023-07-31T11:24:03;2.13;;;0.43;;
43419;SDS011;29017;51.514;-0.178;2023-07-31T11:26:31;1.83;;;0.40;;
43419;SDS011;29017;51.514;-0.178;2023-07-31T11:28:58;2.95;;;0.50;;
43419;SDS011;29017;51.514;-0.178;2023-07-31T11:31:25;2.60;;;0.50;;
43419;SDS011;29017;51.514;-0.178;2023-07-31T11:34:03;3.80;;;0.40;;
43419;SDS011;29017;51.514;-0.178;2023-07-31T11:36:31;2.72;;;0.52;;
43419;SDS011;29017;51.514;-0.178;2023-07-31T11:39:05;3.42;;;0.65;;
43419;SDS011;29017;51.514;-0.178;2023-07-31T11:41:33;5.00;;;0.57;;
43419;SDS011;29017;51.514;-0.178;2023-07-31T11:44:00;5.50;;;0.70;;
43419;SDS011;29017;51.514;-0.178;2023-07-31T11:46:38;4.05;;;0.50;;
43419;SDS011;29017;51.514;-0.178;2023-07-31T11:49:06;4.43;;;0.50;;
43419;SDS011;29017;51.514;-0.178;2023-07-31T11:51:33;2.60;;;0.68;;
43419;SDS011;29017;51.514;-0.178;2023-07-31T11:54:00;5.15;;;0.60;;
43419;SDS011;29017;51.514;-0.178;2023-07-31T11:56:29;2.13;;;0.63;;
43419;SDS011;29017;51.514;-0.178;2023-07-31T11:58:59;2.90;;;0.60;;
43419;SDS011;29017;51.514;-0.178;2023-07-31T12:01:29;2.90;;;0.60;;
43419;SDS011;29017;51.514;-0.178;2023-07-31T12:03:58;4.22;;;0.60;;
43419;SDS011;29017;51.514;-0.178;2023-07-31T12:06:32;3.63;;;0.68;;
43419;SDS011;29017;51.514;-0.178;2023-07-31T12:09:04;2.03;;;0.68;;
43419;SDS011;29017;51.514;-0.178;2023-07-31T12:11:42;3.92;;;0.60;;
43419;SDS011;29017;51.514;-0.178;2023-07-31T12:14:26;5.78;;;0.80;;
43419;SDS011;29017;51.514;-0.178;2023-07-31T12:17:15;2.83;;;0.60;;
43419;SDS011;29017;51.514;-0.178;2023-07-31T12:19:42;3.15;;;0.70;;
43419;SDS011;29017;51.514;-0.178;2023-07-31T12:22:16;3.90;;;0.80;;
43419;SDS011;29017;51.514;-0.178;2023-07-31T12:24:44;5.43;;;0.95;;
43419;SDS011;29017;51.514;-0.178;2023-07-31T12:29:39;4.00;;;0.80;;
43419;SDS011;29017;51.514;-0.178;2023-07-31T12:32:20;3.50;;;0.93;;
43419;SDS011;29017;51.514;-0.178;2023-07-31T12:34:49;4.38;;;0.80;;
43419;SDS011;29017;51.514;-0.178;2023-07-31T12:37:16;4.28;;;0.70;;
43419;SDS011;29017;51.514;-0.178;2023-07-31T12:39:44;5.80;;;0.90;;
43419;SDS011;29017;51.514;-0.178;2023-07-31T12:42:14;4.80;;;1.02;;
43419;SDS011;29017;51.514;-0.178;2023-07-31T12:44:44;2.95;;;0.55;;
43419;SDS011;29017;51.514;-0.178;2023-07-31T12:47:11;3.85;;;0.80;;
43419;SDS011;29017;51.514;-0.178;2023-07-31T12:49:40;6.15;;;0.70;;
43419;SDS011;29017;51.514;-0.178;2023-07-31T12:52:07;6.05;;;0.93;;
43419;SDS011;29017;51.514;-0.178;2023-07-31T12:54:34;5.65;;;0.90;;
43419;SDS011;29017;51.514;-0.178;2023-07-31T12:57:04;5.20;;;0.77;;
43419;SDS011;29017;51.514;-0.178;2023-07-31T12:59:31;4.93;;;0.88;;
43419;SDS011;29017;51.514;-0.178;2023-07-31T13:01:58;6.35;;;0.80;;
43419;SDS011;29017;51.514;-0.178;2023-07-31T13:04:25;3.47;;;0.90;;
43419;SDS011;29017;51.514;-0.178;2023-07-31T13:06:52;7.10;;;0.85;;
43419;SDS011;29017;51.514;-0.178;2023-07-31T13:09:20;5.85;;;0.90;;
43419;SDS011;29017;51.514;-0.178;2023-07-31T13:11:54;4.72;;;1.00;;
43419;SDS011;29017;51.514;-0.178;2023-07-31T13:14:22;7.70;;;1.15;;
43419;SDS011;29017;51.514;-0.178;2023-07-31T13:16:49;5.55;;;1.23;;
43419;SDS011;29017;51.514;-0.178;2023-07-31T13:19:17;6.60;;;1.00;;
43419;SDS011;29017;51.514;-0.178;2023-07-31T13:21:48;7.77;;;1.10;;
43419;SDS011;29017;51.514;-0.178;2023-07-31T13:24:15;8.25;;;1.35;;
43419;SDS011;29017;51.514;-0.178;2023-07-31T13:26:42;5.95;;;1.10;;
43419;SDS011;29017;51.514;-0.178;2023-07-31T13:29:09;5.93;;;1.23;;
43419;SDS011;29017;51.514;-0.178;2023-07-31T13:31:37;5.35;;;1.00;;
43419;SDS011;29017;51.514;-0.178;2023-07-31T13:34:04;5.82;;;1.38;;
43419;SDS011;29017;51.514;-0.178;2023-07-31T13:36:31;8.23;;;1.55;;
43419;SDS011;29017;51.514;-0.178;2023-07-31T13:39:00;5.50;;;1.23;;
43419;SDS011;29017;51.514;-0.178;2023-07-31T13:41:27;6.55;;;1.42;;
43419;SDS011;29017;51.514;-0.178;2023-07-31T13:43:54;8.88;;;1.25;;
43419;SDS011;29017;51.514;-0.178;2023-07-31T13:46:21;5.60;;;1.48;;
43419;SDS011;29017;51.514;-0.178;2023-07-31T13:48:48;8.40;;;1.45;;
43419;SDS011;29017;51.514;-0.178;2023-07-31T13:51:15;6.90;;;1.25;;
43419;SDS011;29017;51.514;-0.178;2023-07-31T13:53:42;7.28;;;1.40;;
43419;SDS011;29017;51.514;-0.178;2023-07-31T13:56:09;8.23;;;2.42;;
43419;SDS011;29017;51.514;-0.178;2023-07-31T13:58:36;9.63;;;1.88;;
43419;SDS011;29017;51.514;-0.178;2023-07-31T14:01:03;9.00;;;1.52;;
43419;SDS011;29017;51.514;-0.178;2023-07-31T14:03:31;5.50;;;1.48;;
43419;SDS011;29017;51.514;-0.178;2023-07-31T14:05:58;12.15;;;3.35;;
43419;SDS011;29017;51.514;-0.178;2023-07-31T14:08:25;7.25;;;2.00;;
43419;SDS011;29017;51.514;-0.178;2023-07-31T14:10:52;8.13;;;1.75;;
43419;SDS011;29017;51.514;-0.178;2023-07-31T14:13:19;6.57;;;1.98;;
43419;SDS011;29017;51.514;-0.178;2023-07-31T14:15:46;11.73;;;1.75;;
43419;SDS011;29017;51.514;-0.178;2023-07-31T14:18:13;8.55;;;1.88;;
43419;SDS011;29017;51.514;-0.178;2023-07-31T14:20:41;5.28;;;1.63;;
43419;SDS011;29017;51.514;-0.178;2023-07-31T14:23:08;6.50;;;1.60;;
43419;SDS011;29017;51.514;-0.178;2023-07-31T14:25:35;9.25;;;1.88;;
43419;SDS011;29017;51.514;-0.178;2023-07-31T14:28:02;7.00;;;1.80;;
43419;SDS011;29017;51.514;-0.178;2023-07-31T14:30:29;8.38;;;1.85;;
43419;SDS011;29017;51.514;-0.178;2023-07-31T14:32:57;12.15;;;2.00;;
43419;SDS011;29017;51.514;-0.178;2023-07-31T14:35:24;6.88;;;1.83;;
43419;SDS011;29017;51.514;-0.178;2023-07-31T14:37:51;6.93;;;2.30;;
43419;SDS011;29017;51.514;-0.178;2023-07-31T14:40:18;10.13;;;1.90;;
43419;SDS011;29017;51.514;-0.178;2023-07-31T14:42:45;8.23;;;2.45;;
43419;SDS011;29017;51.514;-0.178;2023-07-31T14:45:12;10.80;;;1.85;;
43419;SDS011;29017;51.514;-0.178;2023-07-31T14:47:39;11.50;;;2.03;;
43419;SDS011;29017;51.514;-0.178;2023-07-31T14:50:07;8.02;;;2.58;;